Time;durP1;ratioP1;P1;durP2;ratioP2;P2;SDS_P1;SDS_P2;PMS_P1;PMS_P2;Temp;Humidity;BMP_temperature;BMP_pressure;BME280_temperature;BME280_humidity;BME280_pressure;Samples;Min_cycle;Max_cycle;Signal;HPM_P1;HPM_P2
2023/12/09 00:00:41;;;;;;;;;;;;;;;1.40;100.00;99050.66;67965;1273;1016390;-70
2023/12/09 00:04:04;;;;;;;;;;;;;;;1.55;100.00;99047.09;67901;1274;1017474;-70
2023/12/09 00:07:06;;;;;;;;;;;;;;;1.63;100.00;99050.19;67888;1274;1016433;-71
2023/12/09 00:10:09;;;;;;;;;;;;;;;1.62;100.00;99048.48;67888;1273;1016282;-70
2023/12/09 00:13:12;;;;;;;;;;;;;;;1.58;100.00;99046.51;67912;1274;1016320;-70
2023/12/09 00:16:15;;;;;;;;;;;;;;;1.59;100.00;99044.59;67882;1274;1016192;-70
2023/12/09 00:19:17;;;;;;;;;;;;;;;1.51;100.00;99043.19;67889;1273;1016278;-70
2023/12/09 00:22:20;;;;;;;;;;;;;;;1.53;100.00;99042.98;67916;1274;1016117;-70
2023/12/09 00:25:22;;;;;;;;;;;;;;;1.54;100.00;99038.48;67936;1274;1018755;-70
2023/12/09 00:28:26;;;;;;;;;;;;;;;1.46;100.00;99038.66;67915;1273;1016446;-70
2023/12/09 00:31:28;;;;;;;;;;;;;;;1.46;100.00;99037.45;67929;1273;1016181;-70
2023/12/09 00:34:31;;;;;;;;;;;;;;;1.40;100.00;99037.73;67910;1273;1016400;-70
2023/12/09 00:37:34;;;;;;;;;;;;;;;1.41;100.00;99042.04;67932;1274;1016471;-70
2023/12/09 00:40:40;;;;;;;;;;;;;;;1.41;100.00;99039.27;67899;1274;1015830;-70
2023/12/09 00:43:42;;;;;;;;;;;;;;;1.55;100.00;99037.44;67918;1273;1017759;-70
2023/12/09 00:46:45;;;;;;;;;;;;;;;1.67;100.00;99038.73;67916;1274;1016019;-70
2023/12/09 00:49:47;;;;;;;;;;;;;;;1.71;100.00;99043.13;67892;1273;1018541;-71
2023/12/09 00:52:50;;;;;;;;;;;;;;;1.63;100.00;99044.34;67912;1273;1016099;-70
2023/12/09 00:55:53;;;;;;;;;;;;;;;1.69;100.00;99048.70;67891;1274;1017164;-70
2023/12/09 00:58:55;;;;;;;;;;;;;;;1.58;100.00;99044.96;67890;1274;1015843;-70
2023/12/09 01:01:58;;;;;;;;;;;;;;;1.57;100.00;99043.77;67947;1274;1016439;-70
2023/12/09 01:05:04;;;;;;;;;;;;;;;1.64;100.00;99040.17;67970;1274;1016236;-70
2023/12/09 01:08:07;;;;;;;;;;;;;;;1.76;100.00;99039.76;67932;1274;1017112;-70
2023/12/09 01:11:10;;;;;;;;;;;;;;;1.84;100.00;99039.23;67947;1273;1016801;-70
2023/12/09 01:14:12;;;;;;;;;;;;;;;1.81;100.00;99038.59;67924;1273;1016126;-70
2023/12/09 01:17:15;;;;;;;;;;;;;;;1.88;100.00;99041.73;67960;1274;1016415;-70
2023/12/09 01:20:18;;;;;;;;;;;;;;;1.81;100.00;99040.33;67944;1273;1019002;-71
2023/12/09 01:23:21;;;;;;;;;;;;;;;1.75;100.00;99040.11;67935;1273;1016512;-70
2023/12/09 01:26:23;;;;;;;;;;;;;;;1.69;100.00;99041.27;67904;1274;1016242;-70
2023/12/09 01:29:26;;;;;;;;;;;;;;;1.74;100.00;99042.89;67900;1274;1016449;-70
2023/12/09 01:32:28;;;;;;;;;;;;;;;1.73;100.00;99046.70;67925;1273;1016446;-70
2023/12/09 01:35:31;;;;;;;;;;;;;;;1.81;100.00;99043.25;67958;1273;1018550;-70
2023/12/09 01:38:34;;;;;;;;;;;;;;;1.73;100.00;99040.85;67894;1274;1016358;-70
2023/12/09 01:41:37;;;;;;;;;;;;;;;1.89;100.00;99038.08;67984;1274;1016384;-70
2023/12/09 01:44:40;;;;;;;;;;;;;;;1.81;100.00;99037.73;67858;1274;1018531;-70
2023/12/09 01:47:42;;;;;;;;;;;;;;;1.86;100.00;99030.91;67914;1274;1016512;-70
2023/12/09 01:50:45;;;;;;;;;;;;;;;1.83;100.00;99031.82;67907;1273;1016371;-70
2023/12/09 01:53:48;;;;;;;;;;;;;;;1.86;100.00;99034.02;67913;1274;1016505;-70
2023/12/09 01:56:51;;;;;;;;;;;;;;;1.79;100.00;99036.23;67955;1273;1016167;-70
2023/12/09 01:59:53;;;;;;;;;;;;;;;1.87;100.00;99042.11;67904;1273;1016396;-70
2023/12/09 02:02:56;;;;;;;;;;;;;;;2.05;100.00;99040.84;67889;1273;1016304;-70
2023/12/09 02:05:59;;;;;;;;;;;;;;;2.08;100.00;99044.21;67926;1274;1016303;-70
2023/12/09 02:09:01;;;;;;;;;;;;;;;2.05;100.00;99045.65;67924;1274;1016227;-70
2023/12/09 02:12:04;;;;;;;;;;;;;;;1.95;100.00;99039.84;67896;1274;1016480;-71
2023/12/09 02:15:06;;;;;;;;;;;;;;;1.77;100.00;99035.27;67892;1273;1016180;-70
2023/12/09 02:18:09;;;;;;;;;;;;;;;1.82;100.00;99033.41;67910;1273;1016694;-71
2023/12/09 02:21:11;;;;;;;;;;;;;;;1.90;100.00;99035.98;67915;1273;1016145;-70
2023/12/09 02:24:14;;;;;;;;;;;;;;;1.70;100.00;99033.34;67864;1273;1015895;-70
2023/12/09 02:27:17;;;;;;;;;;;;;;;1.63;100.00;99040.37;67907;1273;1015926;-70
2023/12/09 02:30:20;;;;;;;;;;;;;;;1.73;100.00;99036.05;67867;1274;1016444;-70
2023/12/09 02:33:23;;;;;;;;;;;;;;;1.80;100.00;99040.19;67897;1273;1016627;-70
2023/12/09 02:36:25;;;;;;;;;;;;;;;1.73;100.00;99036.54;67996;1274;1016777;-70
2023/12/09 02:39:28;;;;;;;;;;;;;;;1.57;100.00;99032.23;67904;1273;1017923;-70
2023/12/09 02:42:30;;;;;;;;;;;;;;;1.61;100.00;99034.90;67901;1274;1016251;-70
2023/12/09 02:45:33;;;;;;;;;;;;;;;1.74;100.00;99034.95;67893;1273;1016309;-70
2023/12/09 02:48:36;;;;;;;;;;;;;;;1.69;100.00;99032.84;67883;1273;1016078;-70
2023/12/09 02:51:38;;;;;;;;;;;;;;;1.70;100.00;99029.17;67880;1273;1016091;-70
2023/12/09 02:54:41;;;;;;;;;;;;;;;1.70;100.00;99032.80;67858;1274;1016423;-71
2023/12/09 02:57:44;;;;;;;;;;;;;;;1.70;100.00;99032.30;67883;1274;1016462;-71
2023/12/09 03:00:46;;;;;;;;;;;;;;;1.62;100.00;99034.71;67919;1274;1016412;-70
2023/12/09 03:03:49;;;;;;;;;;;;;;;1.57;100.00;99034.46;67862;1274;1016448;-70
2023/12/09 03:06:51;;;;;;;;;;;;;;;1.63;100.00;99034.34;67865;1274;1017485;-71
2023/12/09 03:09:54;;;;;;;;;;;;;;;1.70;100.00;99035.39;67916;1274;1016587;-71
2023/12/09 03:12:56;;;;;;;;;;;;;;;1.76;100.00;99035.79;67918;1274;1016464;-70
2023/12/09 03:15:59;;;;;;;;;;;;;;;1.73;100.00;99037.23;67883;1274;1018019;-70
2023/12/09 03:19:02;;;;;;;;;;;;;;;1.65;100.00;99038.08;67871;1273;1016154;-70
2023/12/09 03:22:04;;;;;;;;;;;;;;;1.75;100.00;99043.73;67890;1273;1016414;-70
2023/12/09 03:25:07;;;;;;;;;;;;;;;1.74;100.00;99039.96;67922;1273;1016269;-70
2023/12/09 03:28:09;;;;;;;;;;;;;;;1.71;100.00;99041.05;67883;1273;1016471;-71
2023/12/09 03:31:12;;;;;;;;;;;;;;;1.80;100.00;99035.36;67867;1274;1016481;-71
2023/12/09 03:34:14;;;;;;;;;;;;;;;1.83;100.00;99035.48;67913;1274;1016423;-71
2023/12/09 03:40:40;;;;;;;;;;;;;;;1.78;100.00;99033.67;67916;1273;1016431;-70
2023/12/09 03:43:43;;;;;;;;;;;;;;;1.74;100.00;99039.80;67925;1274;1016475;-70
2023/12/09 03:46:45;;;;;;;;;;;;;;;1.65;100.00;99036.53;67903;1273;1016436;-70
2023/12/09 03:49:48;;;;;;;;;;;;;;;1.65;100.00;99033.26;67869;1274;1016544;-71
2023/12/09 03:52:51;;;;;;;;;;;;;;;1.61;100.00;99036.09;67899;1274;1016468;-70
2023/12/09 03:55:56;;;;;;;;;;;;;;;1.67;100.00;99032.70;67917;1273;1016185;-71
2023/12/09 03:59:00;;;;;;;;;;;;;;;1.72;100.00;99036.05;67891;1274;1016661;-71
2023/12/09 04:02:02;;;;;;;;;;;;;;;1.62;100.00;99032.65;67864;1274;1016175;-70
2023/12/09 04:05:05;;;;;;;;;;;;;;;1.65;100.00;99030.85;67905;1274;1016493;-71
2023/12/09 04:08:08;;;;;;;;;;;;;;;1.65;100.00;99033.08;67894;1274;1018745;-70
2023/12/09 04:11:11;;;;;;;;;;;;;;;1.68;100.00;99031.46;67872;1274;1016394;-70
2023/12/09 04:14:13;;;;;;;;;;;;;;;1.69;100.00;99030.41;67997;1273;1016026;-70
2023/12/09 04:17:16;;;;;;;;;;;;;;;1.76;100.00;99035.09;67879;1273;1016200;-70
2023/12/09 04:20:19;;;;;;;;;;;;;;;1.69;100.00;99031.43;67902;1274;1016677;-70
2023/12/09 04:23:24;;;;;;;;;;;;;;;1.72;100.00;99026.04;67907;1274;1016419;-71
2023/12/09 04:26:27;;;;;;;;;;;;;;;1.63;100.00;99023.14;67873;1273;1015861;-71
2023/12/09 04:29:30;;;;;;;;;;;;;;;1.63;100.00;99028.15;67878;1274;1016451;-70
2023/12/09 04:32:32;;;;;;;;;;;;;;;1.70;100.00;99026.08;67870;1274;1016093;-70
2023/12/09 04:35:35;;;;;;;;;;;;;;;1.72;100.00;99025.02;67913;1274;1016176;-70
2023/12/09 04:38:38;;;;;;;;;;;;;;;1.70;100.00;99024.17;67961;1274;1016828;-70
2023/12/09 04:41:40;;;;;;;;;;;;;;;1.74;100.00;99023.77;67874;1274;1016370;-70
2023/12/09 04:44:43;;;;;;;;;;;;;;;1.77;100.00;99020.25;67861;1274;1016443;-70
2023/12/09 04:47:45;;;;;;;;;;;;;;;1.78;100.00;99020.23;67899;1274;1018148;-70
2023/12/09 04:50:48;;;;;;;;;;;;;;;1.71;100.00;99020.89;67898;1274;1016164;-70
2023/12/09 04:53:51;;;;;;;;;;;;;;;1.64;100.00;99021.73;67855;1274;1016059;-70
2023/12/09 04:56:54;;;;;;;;;;;;;;;1.53;100.00;99015.06;67947;1273;1016210;-70
2023/12/09 04:59:57;;;;;;;;;;;;;;;1.55;100.00;99025.35;67866;1274;1017298;-70
2023/12/09 05:02:59;;;;;;;;;;;;;;;1.49;100.00;99031.18;67887;1274;1016153;-71
2023/12/09 05:06:04;;;;;;;;;;;;;;;1.50;100.00;99030.65;67897;1274;1017436;-70
2023/12/09 05:09:08;;;;;;;;;;;;;;;1.53;100.00;99024.57;67904;1273;1016251;-70
2023/12/09 05:12:11;;;;;;;;;;;;;;;1.45;100.00;99019.55;67896;1274;1016248;-70
2023/12/09 05:15:13;;;;;;;;;;;;;;;1.45;100.00;99017.31;67894;1273;1016503;-70
2023/12/09 05:18:24;;;;;;;;;;;;;;;1.51;100.00;99012.35;67985;1274;1016281;-70
2023/12/09 05:21:28;;;;;;;;;;;;;;;1.51;100.00;99013.05;67883;1274;1016291;-71
2023/12/09 05:24:30;;;;;;;;;;;;;;;1.56;100.00;99019.13;65345;1274;6377245;-71
2023/12/09 05:27:33;;;;;;;;;;;;;;;1.63;100.00;99027.27;67968;1274;1016359;-70
2023/12/09 05:30:37;;;;;;;;;;;;;;;1.67;100.00;99024.94;67915;1274;1016328;-70
2023/12/09 05:33:39;;;;;;;;;;;;;;;1.67;100.00;99020.63;67897;1274;1017968;-70
2023/12/09 05:36:42;;;;;;;;;;;;;;;1.48;100.00;99021.02;67905;1274;1017916;-70
2023/12/09 05:39:45;;;;;;;;;;;;;;;1.32;100.00;99020.67;67907;1274;1016397;-70
2023/12/09 05:42:47;;;;;;;;;;;;;;;1.38;100.00;99028.63;67897;1273;1016451;-70
2023/12/09 05:45:50;;;;;;;;;;;;;;;1.42;100.00;99025.10;67903;1274;1018376;-70
2023/12/09 05:48:53;;;;;;;;;;;;;;;1.46;100.00;99020.56;67890;1274;1016347;-70
2023/12/09 05:51:55;;;;;;;;;;;;;;;1.45;100.00;99021.09;67949;1274;1016961;-70
2023/12/09 05:54:58;;;;;;;;;;;;;;;1.47;100.00;99019.51;67890;1274;1019314;-70
2023/12/09 05:58:01;;;;;;;;;;;;;;;1.46;100.00;99018.84;67961;1274;1017244;-70
2023/12/09 06:01:04;;;;;;;;;;;;;;;1.54;100.00;99022.63;67849;1274;1016238;-70
2023/12/09 06:04:06;;;;;;;;;;;;;;;1.56;100.00;99015.87;67878;1274;1016503;-70
2023/12/09 06:07:09;;;;;;;;;;;;;;;1.50;100.00;99018.58;67878;1273;1016458;-70
2023/12/09 06:10:11;;;;;;;;;;;;;;;1.46;100.00;99013.84;67866;1274;1016543;-70
2023/12/09 06:13:14;;;;;;;;;;;;;;;1.49;100.00;99013.26;67947;1274;1016483;-71
2023/12/09 06:16:17;;;;;;;;;;;;;;;1.51;100.00;99009.25;67875;1274;1016294;-70
2023/12/09 06:19:19;;;;;;;;;;;;;;;1.53;100.00;99009.20;67901;1274;1016403;-70
2023/12/09 06:22:22;;;;;;;;;;;;;;;1.56;100.00;99010.17;67875;1274;1016296;-70
2023/12/09 06:25:25;;;;;;;;;;;;;;;1.69;100.00;99009.05;67882;1274;1016381;-70
2023/12/09 06:28:27;;;;;;;;;;;;;;;1.64;100.00;99010.69;67908;1274;1016198;-70
2023/12/09 06:31:30;;;;;;;;;;;;;;;1.64;100.00;99009.33;67955;1274;1018890;-70
2023/12/09 06:34:32;;;;;;;;;;;;;;;1.60;100.00;99005.77;67839;1274;1016169;-70
2023/12/09 06:37:35;;;;;;;;;;;;;;;1.45;100.00;99004.38;67873;1274;1017676;-70
2023/12/09 06:40:37;;;;;;;;;;;;;;;1.45;100.00;99002.31;67958;1274;1016151;-70
2023/12/09 06:43:40;;;;;;;;;;;;;;;1.45;100.00;99006.27;67875;1274;1016424;-70
2023/12/09 06:46:43;;;;;;;;;;;;;;;1.43;100.00;99001.67;67882;1274;1016369;-70
2023/12/09 06:49:46;;;;;;;;;;;;;;;1.30;100.00;99006.23;67912;1274;1016175;-70
2023/12/09 06:52:49;;;;;;;;;;;;;;;1.33;100.00;99005.14;67914;1274;1016518;-70
2023/12/09 06:55:51;;;;;;;;;;;;;;;1.38;100.00;99002.46;67941;1274;1016615;-70
2023/12/09 06:58:54;;;;;;;;;;;;;;;1.34;100.00;99000.98;67929;1274;1016406;-70
2023/12/09 07:01:57;;;;;;;;;;;;;;;1.31;100.00;99003.46;67873;1274;1016376;-70
2023/12/09 07:04:59;;;;;;;;;;;;;;;1.29;100.00;99005.75;67888;1274;1016519;-70
2023/12/09 07:08:02;;;;;;;;;;;;;;;1.32;100.00;99008.95;67918;1274;1016753;-70
2023/12/09 07:11:05;;;;;;;;;;;;;;;1.30;100.00;99013.82;67860;1275;1016469;-70
2023/12/09 07:14:20;;;;;;;;;;;;;;;;;;;;;
2023/12/09 07:17:23;;;;;;;;;;;;;;;0.94;100.00;99011.25;67870;1274;1016159;-70
2023/12/09 07:20:26;;;;;;;;;;;;;;;1.05;100.00;99005.86;67890;1274;1016596;-70
2023/12/09 07:23:28;;;;;;;;;;;;;;;1.22;100.00;98999.51;67895;1273;1016398;-70
2023/12/09 07:26:31;;;;;;;;;;;;;;;1.22;100.00;98998.63;67841;1274;1016448;-71
2023/12/09 07:29:34;;;;;;;;;;;;;;;1.28;100.00;98999.55;67840;1274;1016444;-70
2023/12/09 07:32:36;;;;;;;;;;;;;;;1.40;100.00;99000.52;67844;1274;1016444;-70
2023/12/09 07:35:39;;;;;;;;;;;;;;;1.35;100.00;99003.20;67887;1274;1016347;-70
2023/12/09 07:38:42;;;;;;;;;;;;;;;1.39;100.00;99006.39;67914;1274;1016346;-70
2023/12/09 07:41:44;;;;;;;;;;;;;;;1.45;100.00;99002.99;67903;1274;1016416;-70
2023/12/09 07:44:47;;;;;;;;;;;;;;;1.51;100.00;99002.86;67883;1273;1016238;-70
2023/12/09 07:47:50;;;;;;;;;;;;;;;1.57;100.00;99003.27;67842;1275;1016285;-70
2023/12/09 07:50:52;;;;;;;;;;;;;;;1.70;100.00;99003.33;67894;1274;1016235;-70
2023/12/09 07:53:55;;;;;;;;;;;;;;;1.78;100.00;99002.81;67898;1274;1016488;-70
2023/12/09 07:56:58;;;;;;;;;;;;;;;1.82;100.00;99002.72;67900;1274;1016425;-70
2023/12/09 08:00:01;;;;;;;;;;;;;;;1.89;100.00;98999.28;67882;1274;1016449;-70
2023/12/09 08:03:03;;;;;;;;;;;;;;;1.95;100.00;98997.77;67831;1273;1016842;-71
2023/12/09 08:06:07;;;;;;;;;;;;;;;1.99;100.00;98992.67;67878;1273;1016452;-70
2023/12/09 08:09:10;;;;;;;;;;;;;;;2.17;100.00;98996.55;67864;1274;1016403;-70
2023/12/09 08:12:12;;;;;;;;;;;;;;;2.20;100.00;98999.61;67890;1274;1016315;-70
2023/12/09 08:15:15;;;;;;;;;;;;;;;2.29;100.00;99004.02;67893;1274;1016128;-70
2023/12/09 08:18:17;;;;;;;;;;;;;;;2.49;100.00;99002.67;67891;1275;1016390;-70
2023/12/09 08:21:20;;;;;;;;;;;;;;;2.66;100.00;98998.79;67841;1274;1016457;-70
2023/12/09 08:24:23;;;;;;;;;;;;;;;2.78;100.00;98997.80;67936;1274;1016243;-70
2023/12/09 08:27:25;;;;;;;;;;;;;;;2.94;100.00;98999.43;67894;1274;1017039;-70
2023/12/09 08:30:28;;;;;;;;;;;;;;;2.81;100.00;98999.11;67910;1274;1017320;-70
2023/12/09 08:33:31;;;;;;;;;;;;;;;2.90;100.00;98994.19;67946;1274;1019422;-71
2023/12/09 08:36:34;;;;;;;;;;;;;;;3.01;100.00;98991.83;67940;1274;1016487;-70
2023/12/09 08:39:36;;;;;;;;;;;;;;;3.09;100.00;98991.77;67951;1274;1018394;-70
2023/12/09 08:42:39;;;;;;;;;;;;;;;3.24;100.00;98990.66;67906;1274;1016526;-70
2023/12/09 08:45:42;;;;;;;;;;;;;;;3.32;100.00;98993.55;67908;1274;1016786;-70
2023/12/09 08:48:45;;;;;;;;;;;;;;;3.25;100.00;98989.94;67956;1274;1016320;-70
2023/12/09 08:51:47;;;;;;;;;;;;;;;3.17;100.00;98987.42;67911;1274;1016859;-70
2023/12/09 08:54:50;;;;;;;;;;;;;;;3.11;100.00;98989.81;67903;1274;1015740;-70
2023/12/09 08:57:52;;;;;;;;;;;;;;;3.16;100.00;98989.84;67896;1274;1016663;-70
2023/12/09 09:00:55;;;;;;;;;;;;;;;3.05;100.00;98986.86;67987;1274;1016439;-70
2023/12/09 09:03:58;;;;;;;;;;;;;;;3.09;100.00;98989.19;67914;1274;1016187;-70
2023/12/09 09:07:01;;;;;;;;;;;;;;;3.14;100.00;98988.36;67964;1273;1016393;-70
2023/12/09 09:10:03;;;;;;;;;;;;;;;3.10;100.00;98992.80;67948;1274;1016024;-71
2023/12/09 09:13:06;;;;;;;;;;;;;;;3.30;100.00;98984.45;67914;1274;1016458;-70
2023/12/09 09:16:08;;;;;;;;;;;;;;;3.52;100.00;98979.29;67904;1273;1016370;-70
2023/12/09 09:19:13;;;;;;;;;;;;;;;3.62;100.00;98976.93;67978;1274;1016393;-70
2023/12/09 09:22:16;;;;;;;;;;;;;;;3.58;100.00;98970.48;67890;1273;1016408;-70
2023/12/09 09:25:18;;;;;;;;;;;;;;;3.64;100.00;98972.91;67929;1273;1016005;-70
2023/12/09 09:28:21;;;;;;;;;;;;;;;3.70;100.00;98979.80;67934;1274;1016381;-71
2023/12/09 09:31:24;;;;;;;;;;;;;;;3.72;100.00;98976.83;67963;1274;1018680;-70
2023/12/09 09:34:26;;;;;;;;;;;;;;;3.76;100.00;98971.33;67914;1273;1016531;-70
2023/12/09 09:37:29;;;;;;;;;;;;;;;3.77;100.00;98962.47;67968;1274;1016447;-71
2023/12/09 09:40:31;;;;;;;;;;;;;;;3.78;100.00;98957.42;67972;1274;1016132;-70
2023/12/09 09:43:34;;;;;;;;;;;;;;;3.81;100.00;98952.48;67905;1273;1016402;-70
2023/12/09 09:46:36;;;;;;;;;;;;;;;4.32;100.00;98947.04;67894;1274;1016418;-70
2023/12/09 09:49:39;;;;;;;;;;;;;;;4.42;100.00;98939.95;67971;1273;1016305;-70
2023/12/09 09:52:42;;;;;;;;;;;;;;;4.60;100.00;98939.70;67972;1274;1016357;-71
2023/12/09 09:55:44;;;;;;;;;;;;;;;4.33;100.00;98945.11;67938;1275;1016296;-70
2023/12/09 09:58:47;;;;;;;;;;;;;;;4.41;100.00;98940.84;67896;1274;1016491;-70
2023/12/09 10:01:49;;;;;;;;;;;;;;;4.30;100.00;98942.45;67976;1274;1016553;-70
2023/12/09 10:04:52;;;;;;;;;;;;;;;4.17;100.00;98933.34;67977;1274;1016385;-70
2023/12/09 10:07:55;;;;;;;;;;;;;;;4.21;100.00;98932.54;67913;1274;1016440;-70
2023/12/09 10:10:57;;;;;;;;;;;;;;;4.17;100.00;98930.05;67943;1274;1016359;-70
2023/12/09 10:14:00;;;;;;;;;;;;;;;4.17;100.00;98931.77;67969;1274;1016331;-70
2023/12/09 10:17:02;;;;;;;;;;;;;;;4.16;100.00;98928.19;67952;1274;1018853;-70
2023/12/09 10:20:09;;;;;;;;;;;;;;;4.34;100.00;98921.00;67994;1274;1016354;-70
2023/12/09 10:23:11;;;;;;;;;;;;;;;4.40;100.00;98914.55;67986;1274;1016655;-70
2023/12/09 10:26:14;;;;;;;;;;;;;;;4.40;100.00;98908.52;67973;1273;1016452;-70
2023/12/09 10:29:17;;;;;;;;;;;;;;;4.48;100.00;98905.98;67940;1274;1016719;-71
2023/12/09 10:32:19;;;;;;;;;;;;;;;4.58;100.00;98908.73;67957;1273;1016349;-70
2023/12/09 10:35:22;;;;;;;;;;;;;;;4.54;100.00;98907.85;68005;1273;1016040;-70
2023/12/09 10:38:24;;;;;;;;;;;;;;;4.60;100.00;98905.92;67957;1274;1015991;-70
2023/12/09 10:41:28;;;;;;;;;;;;;;;4.79;100.00;98903.86;67938;1274;1016426;-70
2023/12/09 10:44:35;;;;;;;;;;;;;;;4.75;100.00;98901.23;67989;1275;1016323;-70
2023/12/09 10:47:37;;;;;;;;;;;;;;;4.77;100.00;98897.33;67996;1275;1016415;-71
2023/12/09 10:50:40;;;;;;;;;;;;;;;4.87;100.00;98892.64;68034;1275;1015896;-70
2023/12/09 10:53:42;;;;;;;;;;;;;;;5.00;100.00;98888.00;68010;1275;1016531;-70
2023/12/09 10:56:45;;;;;;;;;;;;;;;5.11;100.00;98888.67;67991;1275;1016292;-70
2023/12/09 10:59:48;;;;;;;;;;;;;;;5.13;100.00;98886.66;68004;1275;1016442;-71
2023/12/09 11:02:50;;;;;;;;;;;;;;;5.20;100.00;98877.37;68043;1275;1016281;-71
2023/12/09 11:05:54;;;;;;;;;;;;;;;5.26;100.00;98878.36;67988;1275;1016359;-70
2023/12/09 11:08:57;;;;;;;;;;;;;;;5.33;100.00;98877.06;67993;1275;1016490;-70
2023/12/09 11:11:59;;;;;;;;;;;;;;;5.30;100.00;98878.73;67973;1275;1016503;-70
2023/12/09 11:15:30;;;;;;;;;;;;;;;5.12;100.00;98877.34;68035;1275;1016385;-70
2023/12/09 11:18:48;;;;;;;;;;;;;;;4.90;100.00;98877.83;67990;1275;1016503;-71
2023/12/09 11:21:51;;;;;;;;;;;;;;;4.95;100.00;98874.67;68038;1275;1016418;-70
2023/12/09 11:24:54;;;;;;;;;;;;;;;5.03;100.00;98872.84;67999;1275;1016377;-70
2023/12/09 11:27:58;;;;;;;;;;;;;;;5.07;100.00;98870.95;67989;1275;1016009;-70
2023/12/09 11:31:00;;;;;;;;;;;;;;;5.29;100.00;98868.02;67948;1275;1016894;-71
2023/12/09 11:34:06;;;;;;;;;;;;;;;5.26;100.00;98872.31;68004;1275;1016492;-70
2023/12/09 11:37:11;;;;;;;;;;;;;;;5.25;100.00;98865.41;67957;1275;1018053;-71
2023/12/09 11:43:40;;;;;;;;;;;;;;;5.31;100.00;98852.52;68023;1275;1016155;-70
2023/12/09 11:46:46;;;;;;;;;;;;;;;5.39;100.00;98846.82;67948;1275;1016365;-71
2023/12/09 11:49:49;;;;;;;;;;;;;;;5.48;100.00;98844.41;67998;1275;1016333;-71
2023/12/09 11:52:51;;;;;;;;;;;;;;;5.48;100.00;98848.71;67976;1275;1016425;-71
2023/12/09 11:55:54;;;;;;;;;;;;;;;5.45;100.00;98844.15;68038;1275;1016112;-71
2023/12/09 11:58:57;;;;;;;;;;;;;;;5.29;100.00;98840.80;68009;1275;1016360;-70
2023/12/09 12:01:59;;;;;;;;;;;;;;;5.28;100.00;98845.70;67965;1275;1016408;-71
2023/12/09 12:05:02;;;;;;;;;;;;;;;5.20;100.00;98841.32;68011;1275;1016832;-71
2023/12/09 12:08:04;;;;;;;;;;;;;;;5.28;100.00;98838.73;67981;1275;1016063;-71
2023/12/09 12:11:07;;;;;;;;;;;;;;;5.23;100.00;98835.67;67997;1275;1015924;-70
2023/12/09 12:14:10;;;;;;;;;;;;;;;5.35;100.00;98826.17;68018;1275;1016007;-70
2023/12/09 12:17:12;;;;;;;;;;;;;;;5.30;100.00;98823.26;67980;1275;1016381;-70
2023/12/09 12:20:15;;;;;;;;;;;;;;;5.36;100.00;98827.16;67952;1275;1016532;-71
2023/12/09 12:23:17;;;;;;;;;;;;;;;5.32;100.00;98821.46;68016;1275;1016386;-71
2023/12/09 12:26:21;;;;;;;;;;;;;;;5.29;100.00;98821.57;68076;1275;1017882;-71
2023/12/09 12:29:24;;;;;;;;;;;;;;;5.23;100.00;98815.55;68032;1275;1016480;-70
2023/12/09 12:32:27;;;;;;;;;;;;;;;5.16;100.00;98814.44;67989;1275;1016431;-71
2023/12/09 12:35:30;;;;;;;;;;;;;;;5.05;100.00;98817.11;68040;1275;1016352;-70
2023/12/09 12:38:32;;;;;;;;;;;;;;;5.03;100.00;98819.27;68021;1275;1016589;-70
2023/12/09 12:41:35;;;;;;;;;;;;;;;5.06;100.00;98815.69;68036;1275;1016331;-71
2023/12/09 12:44:38;;;;;;;;;;;;;;;5.12;100.00;98807.48;68066;1275;1018343;-71
2023/12/09 12:47:40;;;;;;;;;;;;;;;5.15;100.00;98807.70;68040;1275;1016064;-71
2023/12/09 12:50:43;;;;;;;;;;;;;;;5.20;100.00;98805.10;67944;1275;1016380;-71
2023/12/09 12:53:46;;;;;;;;;;;;;;;5.04;100.00;98805.02;68058;1275;1016306;-70
2023/12/09 12:56:49;;;;;;;;;;;;;;;5.09;100.00;98799.60;67995;1275;1016448;-71
2023/12/09 12:59:54;;;;;;;;;;;;;;;5.24;100.00;98795.23;68035;1275;1017922;-70
2023/12/09 13:06:20;;;;;;;;;;;;;;;4.70;100.00;98793.32;67961;1275;1016433;-70
2023/12/09 13:09:22;;;;;;;;;;;;;;;4.71;100.00;98788.08;68043;1275;1016333;-70
2023/12/09 13:12:25;;;;;;;;;;;;;;;4.74;100.00;98787.10;68028;1275;1016322;-70
2023/12/09 13:15:29;;;;;;;;;;;;;;;4.81;100.00;98781.78;68032;1275;1016360;-70
2023/12/09 13:18:31;;;;;;;;;;;;;;;4.89;100.00;98779.94;68023;1275;1016846;-71
2023/12/09 13:21:34;;;;;;;;;;;;;;;4.89;100.00;98784.47;67997;1275;1016407;-70
2023/12/09 13:24:36;;;;;;;;;;;;;;;4.75;100.00;98778.74;68012;1275;1016149;-70
2023/12/09 13:27:39;;;;;;;;;;;;;;;4.63;100.00;98779.17;68043;1275;1016370;-70
2023/12/09 13:30:42;;;;;;;;;;;;;;;4.58;100.00;98773.34;68037;1275;1018182;-71
2023/12/09 13:33:44;;;;;;;;;;;;;;;4.64;100.00;98772.56;68014;1275;1015958;-70
2023/12/09 13:36:47;;;;;;;;;;;;;;;4.64;100.00;98774.13;68031;1275;1016400;-70
2023/12/09 13:39:49;;;;;;;;;;;;;;;4.58;100.00;98774.52;67997;1275;1016667;-70
2023/12/09 13:42:52;;;;;;;;;;;;;;;4.60;100.00;98772.90;68015;1275;1016293;-70
2023/12/09 13:45:55;;;;;;;;;;;;;;;4.63;100.00;98764.80;67974;1275;1016453;-70
2023/12/09 13:48:58;;;;;;;;;;;;;;;4.58;100.00;98765.86;68029;1275;1018704;-70
2023/12/09 13:52:00;;;;;;;;;;;;;;;4.47;100.00;98765.42;68051;1275;1016240;-70
2023/12/09 13:55:03;;;;;;;;;;;;;;;4.41;100.00;98761.13;67996;1275;1016420;-70
2023/12/09 13:58:07;;;;;;;;;;;;;;;4.31;100.00;98758.36;67868;1275;1018019;-70
2023/12/09 14:01:09;;;;;;;;;;;;;;;4.31;100.00;98761.48;67886;1275;1016278;-70
2023/12/09 14:04:12;;;;;;;;;;;;;;;4.28;100.00;98760.57;67903;1275;1016200;-71
2023/12/09 14:07:16;;;;;;;;;;;;;;;4.11;100.00;98765.85;67908;1275;1015922;-70
2023/12/09 14:10:18;;;;;;;;;;;;;;;4.06;100.00;98760.83;67913;1275;1016131;-71
2023/12/09 14:13:21;;;;;;;;;;;;;;;4.05;100.00;98758.61;67975;1275;1016417;-70
2023/12/09 14:16:23;;;;;;;;;;;;;;;4.20;100.00;98761.39;68019;1275;1016533;-70
2023/12/09 14:19:27;;;;;;;;;;;;;;;4.09;100.00;98762.80;68018;1275;1016192;-70
2023/12/09 14:22:31;;;;;;;;;;;;;;;4.05;100.00;98759.48;67987;1275;1016854;-70
2023/12/09 14:25:33;;;;;;;;;;;;;;;4.06;100.00;98762.58;67977;1275;1016107;-70
2023/12/09 14:28:36;;;;;;;;;;;;;;;4.03;100.00;98762.14;68022;1275;1016458;-70
2023/12/09 14:31:38;;;;;;;;;;;;;;;3.99;100.00;98762.63;67961;1275;1016395;-70
2023/12/09 14:34:41;;;;;;;;;;;;;;;3.94;100.00;98762.63;67979;1275;1016234;-70
2023/12/09 14:37:47;;;;;;;;;;;;;;;4.04;100.00;98758.14;67959;1275;1016390;-70
2023/12/09 14:40:50;;;;;;;;;;;;;;;4.10;100.00;98752.56;68004;1275;1016288;-70
2023/12/09 14:43:53;;;;;;;;;;;;;;;4.14;100.00;98749.64;68018;1275;1016677;-71
2023/12/09 14:46:56;;;;;;;;;;;;;;;4.06;100.00;98748.19;68001;1275;1019860;-70
2023/12/09 14:49:58;;;;;;;;;;;;;;;4.39;100.00;98745.27;68045;1275;1016467;-70
2023/12/09 14:53:01;;;;;;;;;;;;;;;4.30;100.00;98741.77;67984;1275;1016449;-71
2023/12/09 14:56:03;;;;;;;;;;;;;;;4.37;100.00;98733.91;67900;1275;1016467;-70
2023/12/09 14:59:06;;;;;;;;;;;;;;;4.42;100.00;98732.01;67999;1275;1016821;-70
2023/12/09 15:02:09;;;;;;;;;;;;;;;4.15;100.00;98728.30;68001;1275;1016280;-70
2023/12/09 15:05:12;;;;;;;;;;;;;;;4.05;100.00;98724.70;67999;1275;1016577;-70
2023/12/09 15:08:14;;;;;;;;;;;;;;;4.00;100.00;98722.46;68051;1275;1016851;-70
2023/12/09 15:11:17;;;;;;;;;;;;;;;3.99;100.00;98721.95;68009;1275;1016399;-70
2023/12/09 15:14:19;;;;;;;;;;;;;;;3.98;100.00;98720.45;67989;1275;1016503;-70
2023/12/09 15:17:32;;;;;;;;;;;;;;;;;;;;;
2023/12/09 15:20:35;;;;;;;;;;;;;;;4.03;100.00;98716.14;68002;1275;1016595;-70
2023/12/09 15:23:38;;;;;;;;;;;;;;;4.01;100.00;98710.48;68019;1275;1016206;-70
2023/12/09 15:26:40;;;;;;;;;;;;;;;3.86;100.00;98698.19;68041;1275;1016380;-70
2023/12/09 15:29:43;;;;;;;;;;;;;;;3.79;100.00;98697.95;68058;1275;1016432;-70
2023/12/09 15:32:46;;;;;;;;;;;;;;;3.70;100.00;98696.52;67968;1275;1018541;-70
2023/12/09 15:35:48;;;;;;;;;;;;;;;3.65;100.00;98696.00;68026;1275;1016742;-70
2023/12/09 15:38:51;;;;;;;;;;;;;;;3.61;100.00;98692.69;68036;1275;1016490;-70